createdAt,value
2018-07-20T00:02:22.494Z,14.50
2018-07-20T00:04:53.451Z,12.25
2018-07-20T00:07:25.577Z,14.00
2018-07-20T00:09:56.050Z,13.00
2018-07-20T00:12:26.519Z,13.75
2018-07-20T00:14:56.936Z,14.00
2018-07-20T00:17:27.344Z,13.00
2018-07-20T00:19:58.020Z,13.50
2018-07-20T00:22:28.313Z,14.25
2018-07-20T00:24:58.686Z,14.00
2018-07-20T00:27:30.144Z,14.00
2018-07-20T00:30:00.965Z,12.75
2018-07-20T00:32:33.435Z,14.00
2018-07-20T00:35:05.102Z,13.00
2018-07-20T00:37:36.587Z,13.00
2018-07-20T00:40:08.589Z,12.75
2018-07-20T00:42:38.941Z,14.00
2018-07-20T00:45:15.066Z,14.00
2018-07-20T00:47:45.632Z,15.00
2018-07-20T00:50:21.683Z,12.50
2018-07-20T00:52:52.311Z,12.50
2018-07-20T00:55:22.713Z,13.75
2018-07-20T00:57:57.257Z,15.00
2018-07-20T01:00:29.114Z,13.75
2018-07-20T01:03:02.652Z,12.75
2018-07-20T01:05:36.879Z,12.50
2018-07-20T01:08:09.466Z,13.50
2018-07-20T01:10:43.440Z,17.50
2018-07-20T01:13:17.428Z,17.00
2018-07-20T01:15:49.336Z,15.00
2018-07-20T01:18:19.796Z,15.75
2018-07-20T01:20:50.319Z,16.50
2018-07-20T01:23:21.103Z,17.00
2018-07-20T01:25:52.247Z,14.75
2018-07-20T01:28:23.420Z,14.00
2018-07-20T01:30:54.247Z,15.00
2018-07-20T01:33:24.822Z,14.25
2018-07-20T01:35:55.417Z,15.00
2018-07-20T01:38:25.586Z,15.00
2018-07-20T01:40:55.776Z,17.00
2018-07-20T01:43:26.897Z,17.50
2018-07-20T01:45:59.210Z,15.75
2018-07-20T01:48:34.911Z,13.75
2018-07-20T01:51:06.900Z,16.50
2018-07-20T01:53:37.720Z,12.25
2018-07-20T01:56:14.251Z,16.75
2018-07-20T01:58:44.728Z,18.50
2018-07-20T02:01:16.894Z,16.00
2018-07-20T02:03:47.310Z,15.25
2018-07-20T02:06:19.573Z,19.00
2018-07-20T02:08:50.218Z,16.25
2018-07-20T02:11:21.534Z,16.00
2018-07-20T02:13:51.893Z,16.75
2018-07-20T02:16:23.645Z,14.25
2018-07-20T02:18:54.283Z,13.75
2018-07-20T02:21:25.121Z,13.50
2018-07-20T02:23:57.204Z,16.00
2018-07-20T02:26:27.731Z,13.50
2018-07-20T02:28:58.539Z,14.00
2018-07-20T02:31:29.454Z,14.75
2018-07-20T02:34:01.943Z,14.00
2018-07-20T02:36:33.182Z,13.25
2018-07-20T02:39:09.904Z,14.25
2018-07-20T02:41:40.741Z,13.00
2018-07-20T02:44:11.947Z,15.25
2018-07-20T02:46:42.591Z,15.75
2018-07-20T02:49:14.972Z,14.00
2018-07-20T02:51:46.260Z,16.00
2018-07-20T02:54:16.593Z,12.25
2018-07-20T02:56:50.270Z,16.50
2018-07-20T02:59:22.208Z,12.75
2018-07-20T03:01:53.060Z,15.00
2018-07-20T03:04:24.351Z,13.25
2018-07-20T03:06:55.005Z,15.75
2018-07-20T03:09:27.251Z,13.50
2018-07-20T03:11:57.904Z,15.00
2018-07-20T03:14:28.578Z,14.00
2018-07-20T03:16:59.070Z,13.00
2018-07-20T03:19:30.722Z,14.75
2018-07-20T03:22:02.512Z,14.00
2018-07-20T03:24:33.442Z,15.75
2018-07-20T03:27:04.093Z,18.75
2018-07-20T03:29:35.116Z,15.75
2018-07-20T03:32:07.563Z,16.25
2018-07-20T03:34:38.590Z,14.00
2018-07-20T03:37:09.816Z,17.00
2018-07-20T03:39:40.395Z,18.00
2018-07-20T03:42:10.734Z,20.00
2018-07-20T03:44:41.349Z,15.75
2018-07-20T03:47:13.177Z,18.75
2018-07-20T03:49:44.009Z,19.75
2018-07-20T03:52:15.222Z,19.00
2018-07-20T03:54:45.994Z,20.75
2018-07-20T03:57:16.359Z,21.00
2018-07-20T03:59:48.079Z,19.00
2018-07-20T04:02:20.009Z,19.00
2018-07-20T04:04:51.298Z,24.50
2018-07-20T04:07:22.018Z,21.25
2018-07-20T04:09:52.750Z,20.25
2018-07-20T04:12:23.524Z,21.00
2018-07-20T04:15:00.743Z,23.00
2018-07-20T04:17:44.749Z,28.75
2018-07-20T04:20:17.625Z,26.50
2018-07-20T04:22:59.211Z,26.75
2018-07-20T04:25:32.129Z,31.00
2018-07-20T04:28:03.568Z,29.25
2018-07-20T04:30:37.077Z,28.25
2018-07-20T04:33:07.930Z,29.00
2018-07-20T04:35:41.520Z,25.75
2018-07-20T04:38:12.042Z,31.75
2018-07-20T04:40:43.324Z,29.50
2018-07-20T04:43:13.785Z,29.75
2018-07-20T04:45:46.086Z,31.25
2018-07-20T04:48:18.280Z,29.75
2018-07-20T04:50:48.836Z,32.00
2018-07-20T04:53:21.685Z,30.25
2018-07-20T04:55:53.500Z,32.00
2018-07-20T04:58:23.907Z,32.25
2018-07-20T05:00:54.565Z,32.25
2018-07-20T05:03:26.850Z,33.00
2018-07-20T05:05:57.885Z,30.25
2018-07-20T05:08:28.658Z,30.75
2018-07-20T05:10:59.033Z,34.75
2018-07-20T05:13:30.918Z,33.50
2018-07-20T05:16:02.675Z,31.00
2018-07-20T05:18:33.934Z,31.00
2018-07-20T05:21:04.298Z,36.25
2018-07-20T05:23:40.098Z,30.00
2018-07-20T05:26:15.561Z,34.75
2018-07-20T05:28:50.383Z,35.00
2018-07-20T05:31:24.088Z,34.00
2018-07-20T05:33:59.153Z,34.50
2018-07-20T05:36:31.662Z,37.00
2018-07-20T05:39:02.032Z,35.00
2018-07-20T05:41:34.662Z,35.50
2018-07-20T05:44:17.783Z,39.25
2018-07-20T05:46:54.595Z,38.75
2018-07-20T05:49:30.761Z,40.00
2018-07-20T05:52:05.635Z,40.75
2018-07-20T05:54:37.447Z,41.75
2018-07-20T05:57:09.383Z,38.00
2018-07-20T05:59:42.203Z,35.00
2018-07-20T06:02:15.005Z,39.00
2018-07-20T06:04:46.024Z,39.00
2018-07-20T06:07:18.703Z,40.00
2018-07-20T06:09:53.322Z,39.75
2018-07-20T06:12:25.821Z,41.75
2018-07-20T06:15:00.220Z,43.25
2018-07-20T06:17:37.863Z,38.75
2018-07-20T06:20:16.006Z,39.25
2018-07-20T06:22:51.986Z,42.25
2018-07-20T06:25:24.274Z,41.75
2018-07-20T06:27:58.464Z,42.50
2018-07-20T06:30:41.211Z,42.75
2018-07-20T06:33:12.742Z,42.00
2018-07-20T06:35:45.333Z,40.50
2018-07-20T06:38:28.783Z,41.50
2018-07-20T06:41:02.841Z,45.00
2018-07-20T06:43:34.590Z,41.25
2018-07-20T06:46:06.635Z,42.75
2018-07-20T06:48:38.388Z,45.50
2018-07-20T06:51:10.585Z,44.75
2018-07-20T06:53:41.707Z,46.25
2018-07-20T06:58:55.839Z,45.75
2018-07-20T07:01:27.212Z,46.25
2018-07-20T07:04:21.392Z,44.25
2018-07-20T07:06:54.359Z,44.00
2018-07-20T07:09:28.139Z,43.50
2018-07-20T07:12:02.759Z,46.25
2018-07-20T07:14:34.012Z,44.00
2018-07-20T07:17:06.013Z,42.75
2018-07-20T07:19:36.679Z,42.25
2018-07-20T07:22:08.789Z,41.25
2018-07-20T07:24:41.544Z,39.00
2018-07-20T07:27:12.200Z,41.75
2018-07-20T07:30:07.325Z,39.50
2018-07-20T07:32:47.482Z,33.00
2018-07-20T07:35:26.428Z,33.75
2018-07-20T07:38:00.946Z,36.25
2018-07-20T07:40:35.140Z,39.25
2018-07-20T07:43:13.304Z,34.50
2018-07-20T07:45:47.598Z,36.50
2018-07-20T07:48:19.817Z,34.50
2018-07-20T07:50:50.616Z,36.50
2018-07-20T07:53:35.147Z,36.00
2018-07-20T07:56:07.118Z,37.50
2018-07-20T07:58:40.491Z,37.25
2018-07-20T08:01:12.833Z,36.00
2018-07-20T08:03:44.874Z,39.00
2018-07-20T08:06:25.153Z,43.00
2018-07-20T08:09:01.496Z,45.75
2018-07-20T08:11:43.128Z,38.75
2018-07-20T08:14:29.798Z,39.75
2018-07-20T08:17:05.484Z,39.75
2018-07-20T08:19:39.305Z,43.25
2018-07-20T08:22:16.480Z,39.50
2018-07-20T08:25:05.898Z,38.50
2018-07-20T08:27:36.625Z,37.00
2018-07-20T08:30:09.573Z,42.50
2018-07-20T08:32:42.060Z,42.00
2018-07-20T08:35:12.891Z,37.00
2018-07-20T08:37:43.643Z,39.25
2018-07-20T08:40:16.427Z,40.00
2018-07-20T08:42:49.764Z,37.25
2018-07-20T08:45:22.483Z,35.25
2018-07-20T08:47:53.524Z,38.25
2018-07-20T08:50:32.605Z,37.50
2018-07-20T08:53:08.607Z,36.50
2018-07-20T08:55:50.491Z,38.25
2018-07-20T09:01:14.137Z,34.50
2018-07-20T09:03:51.533Z,33.00
2018-07-20T09:06:24.554Z,35.75
2018-07-20T09:09:03.641Z,36.00
2018-07-20T09:11:34.596Z,32.50
2018-07-20T09:16:46.303Z,38.00
2018-07-20T09:19:17.463Z,35.75
2018-07-20T09:21:49.200Z,34.25
2018-07-20T09:24:21.438Z,28.00
2018-07-20T09:26:59.998Z,36.75
2018-07-20T09:29:38.405Z,33.00
2018-07-20T09:32:15.985Z,35.50
2018-07-20T09:34:49.390Z,39.00
2018-07-20T09:37:31.333Z,37.75
2018-07-20T09:40:12.427Z,41.00
2018-07-20T09:42:54.383Z,35.75
2018-07-20T09:45:34.338Z,35.25
2018-07-20T09:48:06.432Z,31.50
2018-07-20T09:50:42.796Z,39.75
2018-07-20T09:53:20.416Z,32.00
2018-07-20T09:55:55.080Z,31.50
2018-07-20T09:58:35.724Z,30.00
2018-07-20T10:01:07.964Z,30.75
2018-07-20T10:03:40.805Z,32.25
2018-07-20T10:06:15.971Z,33.25
2018-07-20T10:08:53.097Z,28.75
2018-07-20T10:11:28.777Z,29.75
2018-07-20T10:14:06.609Z,37.25
2018-07-20T10:16:39.834Z,30.50
2018-07-20T10:19:11.299Z,32.00
2018-07-20T10:21:47.590Z,29.00
2018-07-20T10:24:34.363Z,31.00
2018-07-20T10:29:46.605Z,31.25
2018-07-20T10:32:36.289Z,32.25
2018-07-20T10:35:14.368Z,31.00
2018-07-20T10:37:46.586Z,29.75
2018-07-20T10:40:20.158Z,29.50
2018-07-20T10:42:59.466Z,29.00
2018-07-20T10:45:39.119Z,28.25
2018-07-20T10:48:39.496Z,35.50
2018-07-20T10:51:14.617Z,32.50
2018-07-20T10:53:51.427Z,37.75
2018-07-20T10:56:23.840Z,31.50
2018-07-20T10:58:55.903Z,34.75
2018-07-20T11:01:27.747Z,34.25
2018-07-20T11:04:05.449Z,36.00
2018-07-20T11:06:48.738Z,38.00
2018-07-20T11:09:21.345Z,29.50
2018-07-20T11:11:55.780Z,28.50
2018-07-20T11:14:28.562Z,30.00
2018-07-20T11:17:02.668Z,30.50
2018-07-20T11:19:36.917Z,33.00
2018-07-20T11:22:22.054Z,27.00
2018-07-20T11:26:19.258Z,31.25
2018-07-20T11:28:55.837Z,33.00
2018-07-20T11:31:32.941Z,26.25
2018-07-20T11:34:06.513Z,27.75
2018-07-20T11:36:41.497Z,31.50
2018-07-20T11:39:18.739Z,30.00
2018-07-20T11:44:42.889Z,34.50
2018-07-20T11:47:17.283Z,34.00
2018-07-20T11:49:49.748Z,33.00
2018-07-20T11:52:37.674Z,29.75
2018-07-20T11:55:16.786Z,27.25
2018-07-20T11:57:48.018Z,32.25
2018-07-20T12:00:21.376Z,30.50
2018-07-20T12:03:02.042Z,32.75
2018-07-20T12:05:33.857Z,28.25
2018-07-20T12:08:08.361Z,31.00
2018-07-20T12:10:42.932Z,30.75
2018-07-20T12:13:14.609Z,33.50
2018-07-20T12:15:46.528Z,32.75
2018-07-20T12:18:20.576Z,31.75
2018-07-20T12:20:51.708Z,30.25
2018-07-20T12:23:27.046Z,29.75
2018-07-20T12:26:03.327Z,34.50
2018-07-20T12:28:39.463Z,34.75
2018-07-20T12:31:14.657Z,32.00
2018-07-20T12:33:58.318Z,32.75
2018-07-20T12:36:44.748Z,31.50
2018-07-20T12:39:35.173Z,30.25
2018-07-20T12:42:13.889Z,34.25
2018-07-20T12:44:47.397Z,31.25
2018-07-20T12:47:23.311Z,28.50
2018-07-20T12:49:54.432Z,29.00
2018-07-20T12:52:29.765Z,27.00
2018-07-20T12:55:12.712Z,27.50
2018-07-20T12:57:46.729Z,28.00
2018-07-20T13:00:32.295Z,24.25
2018-07-20T13:03:11.434Z,30.00
2018-07-20T13:05:48.075Z,26.50
2018-07-20T13:08:22.394Z,27.75
2018-07-20T13:10:58.512Z,25.25
2018-07-20T13:13:29.910Z,25.50
2018-07-20T13:16:00.690Z,25.50
2018-07-20T13:18:38.508Z,28.00
2018-07-20T13:21:11.450Z,23.00
2018-07-20T13:23:47.810Z,24.75
2018-07-20T13:26:21.323Z,24.50
2018-07-20T13:28:53.275Z,25.00
2018-07-20T13:31:24.907Z,25.75
2018-07-20T13:33:55.720Z,24.25
2018-07-20T13:36:27.403Z,26.25
2018-07-20T13:39:06.227Z,24.50
2018-07-20T13:41:38.044Z,26.75
2018-07-20T13:44:12.676Z,24.00
2018-07-20T13:46:46.909Z,24.00
2018-07-20T13:49:20.776Z,22.25
2018-07-20T13:51:56.947Z,25.25
2018-07-20T13:54:30.401Z,20.75
2018-07-20T13:57:01.247Z,20.25
2018-07-20T13:59:34.410Z,21.00
2018-07-20T14:02:10.137Z,20.00
2018-07-20T14:04:43.241Z,20.50
2018-07-20T14:07:23.379Z,20.50
2018-07-20T14:09:58.683Z,21.00
2018-07-20T14:12:37.680Z,22.00
2018-07-20T14:15:18.981Z,21.50
2018-07-20T14:17:56.598Z,22.75
2018-07-20T14:20:28.500Z,20.25
2018-07-20T14:22:59.858Z,26.25
2018-07-20T14:25:34.263Z,19.75
2018-07-20T14:28:06.607Z,22.75
2018-07-20T14:33:28.996Z,22.25
2018-07-20T14:36:02.039Z,21.75
2018-07-20T14:38:33.458Z,22.75
2018-07-20T14:41:06.938Z,19.00
2018-07-20T14:43:38.425Z,19.50
2018-07-20T14:46:11.619Z,18.00
2018-07-20T14:48:45.602Z,21.00
2018-07-20T14:51:19.319Z,18.00
2018-07-20T14:53:50.794Z,18.00
2018-07-20T14:56:24.154Z,20.25
2018-07-20T14:58:55.452Z,17.50
2018-07-20T15:01:35.879Z,18.25
2018-07-20T15:04:07.955Z,19.75
2018-07-20T15:06:40.555Z,21.00
2018-07-20T15:09:13.355Z,18.75
2018-07-20T15:11:48.601Z,18.25
2018-07-20T15:16:53.837Z,19.50
2018-07-20T15:19:34.842Z,17.25
2018-07-20T15:22:07.921Z,18.25
2018-07-20T15:24:46.015Z,16.00
2018-07-20T15:30:20.601Z,16.25
2018-07-20T15:32:56.832Z,17.25
2018-07-20T15:35:28.233Z,17.50
2018-07-20T15:37:59.986Z,17.00
2018-07-20T15:40:30.511Z,15.75
2018-07-20T15:43:10.104Z,14.50
2018-07-20T15:45:51.882Z,16.00
2018-07-20T15:48:14.220Z,16.50
2018-07-20T15:50:45.464Z,15.50
2018-07-20T15:53:43.669Z,16.50
2018-07-20T15:55:46.858Z,11.75
2018-07-20T15:58:18.353Z,14.50
2018-07-20T16:00:50.773Z,16.50
2018-07-20T16:03:28.190Z,15.50
2018-07-20T16:06:02.572Z,14.75
2018-07-20T16:08:35.504Z,12.75
2018-07-20T16:11:07.957Z,13.00
2018-07-20T16:13:49.646Z,16.00
2018-07-20T16:16:27.234Z,15.00
2018-07-20T16:18:57.453Z,14.00
2018-07-20T16:21:29.716Z,14.25
2018-07-20T16:24:00.306Z,14.50
2018-07-20T16:26:48.874Z,11.25
2018-07-20T16:29:19.799Z,12.00
2018-07-20T16:31:55.630Z,13.00
2018-07-20T16:34:31.203Z,14.25
2018-07-20T16:37:03.313Z,13.00
2018-07-20T16:39:36.415Z,15.00
2018-07-20T16:42:07.624Z,15.00
2018-07-20T16:44:44.145Z,14.75
2018-07-20T16:47:17.442Z,15.00
2018-07-20T16:49:49.364Z,14.50
2018-07-20T16:52:26.967Z,13.50
2018-07-20T16:54:58.190Z,13.75
2018-07-20T16:57:33.132Z,14.00
2018-07-20T17:00:08.443Z,13.50
2018-07-20T17:03:00.285Z,12.25
2018-07-20T17:05:32.809Z,14.25
2018-07-20T17:08:29.709Z,12.00
2018-07-20T17:11:15.354Z,11.50
2018-07-20T17:13:51.626Z,13.25
2018-07-20T17:16:31.878Z,12.00
2018-07-20T17:19:05.900Z,12.50
2018-07-20T17:21:37.648Z,15.00
2018-07-20T17:24:10.522Z,13.75
2018-07-20T17:26:47.204Z,12.00
2018-07-20T17:29:21.303Z,13.25
2018-07-20T17:31:54.915Z,14.25
2018-07-20T17:34:26.743Z,14.00
2018-07-20T17:36:56.992Z,14.00
2018-07-20T17:39:27.406Z,15.75
2018-07-20T17:41:58.405Z,14.25
2018-07-20T17:44:30.365Z,16.50
2018-07-20T17:47:04.596Z,15.00
2018-07-20T17:49:38.386Z,13.00
2018-07-20T17:52:09.686Z,13.00
2018-07-20T17:54:41.292Z,13.50
2018-07-20T17:57:14.751Z,13.75
2018-07-20T17:59:46.036Z,12.75
2018-07-20T18:02:17.513Z,13.75
2018-07-20T18:04:50.399Z,14.00
2018-07-20T18:07:22.378Z,13.00
2018-07-20T18:09:53.451Z,14.25
2018-07-20T18:12:24.748Z,14.50
2018-07-20T18:14:56.073Z,15.00
2018-07-20T18:17:29.409Z,14.00
2018-07-20T18:20:00.327Z,12.50
2018-07-20T18:22:32.519Z,14.00
2018-07-20T18:25:05.039Z,15.00
2018-07-20T18:27:38.655Z,15.75
2018-07-20T18:30:09.633Z,14.50
2018-07-20T18:32:40.176Z,12.75
2018-07-20T18:35:10.734Z,14.75
2018-07-20T18:37:41.114Z,14.00
2018-07-20T18:40:12.520Z,16.75
2018-07-20T18:42:44.368Z,15.50
2018-07-20T18:45:17.671Z,12.50
2018-07-20T18:47:47.969Z,12.50
2018-07-20T18:50:30.554Z,14.00
2018-07-20T18:53:02.741Z,16.00
2018-07-20T18:55:33.431Z,16.75
2018-07-20T18:58:07.142Z,13.75
2018-07-20T19:00:38.030Z,14.00
2018-07-20T19:03:10.975Z,16.50
2018-07-20T19:05:42.626Z,15.50
2018-07-20T19:08:14.306Z,13.75
2018-07-20T19:10:49.111Z,17.00
2018-07-20T19:13:20.543Z,15.00
2018-07-20T19:15:51.533Z,16.25
2018-07-20T19:18:22.410Z,17.00
2018-07-20T19:20:52.771Z,15.75
2018-07-20T19:23:24.516Z,14.00
2018-07-20T19:25:55.829Z,13.50
2018-07-20T19:28:26.760Z,16.75
2018-07-20T19:30:58.739Z,13.50
2018-07-20T19:33:29.411Z,13.00
2018-07-20T19:36:02.209Z,14.00
2018-07-20T19:38:33.010Z,14.25
2018-07-20T19:41:10.680Z,14.75
2018-07-20T19:43:42.891Z,12.25
2018-07-20T19:46:17.530Z,12.50
2018-07-20T19:48:49.255Z,14.00
2018-07-20T19:51:24.873Z,16.00
2018-07-20T19:53:57.853Z,13.50
2018-07-20T19:56:30.163Z,14.00
2018-07-20T19:59:03.742Z,12.50
2018-07-20T20:01:37.671Z,13.00
2018-07-20T20:04:10.973Z,12.75
2018-07-20T20:06:41.731Z,12.50
2018-07-20T20:09:16.739Z,13.75
2018-07-20T20:11:48.411Z,13.25
2018-07-20T20:14:19.399Z,13.00
2018-07-20T20:16:50.820Z,14.00
2018-07-20T20:19:22.859Z,14.00
2018-07-20T20:21:55.493Z,16.00
2018-07-20T20:24:28.365Z,15.25
2018-07-20T20:27:04.243Z,12.75
2018-07-20T20:29:40.360Z,16.00
2018-07-20T20:32:14.111Z,17.00
2018-07-20T20:34:51.038Z,15.00
2018-07-20T20:37:26.033Z,17.50
2018-07-20T20:39:58.138Z,15.50
2018-07-20T20:45:37.754Z,15.50
2018-07-20T20:48:08.694Z,14.50
2018-07-20T20:50:50.210Z,14.50
2018-07-20T20:53:21.995Z,14.00
2018-07-20T20:55:54.538Z,15.75
2018-07-20T20:58:25.332Z,15.25
2018-07-20T21:01:12.466Z,13.25
2018-07-20T21:03:43.793Z,14.50
2018-07-20T21:06:19.284Z,13.50
2018-07-20T21:08:51.198Z,13.25
2018-07-20T21:11:32.090Z,13.50
2018-07-20T21:14:06.531Z,13.00
2018-07-20T21:16:41.515Z,14.50
2018-07-20T21:19:18.255Z,13.00
2018-07-20T21:21:50.620Z,13.00
2018-07-20T21:24:23.464Z,16.00
2018-07-20T21:26:55.344Z,11.75
2018-07-20T21:29:26.330Z,11.50
2018-07-20T21:31:59.679Z,13.50
2018-07-20T21:34:33.598Z,15.75
2018-07-20T21:37:07.906Z,13.75
2018-07-20T21:42:37.592Z,13.00
2018-07-20T21:45:08.876Z,14.75
2018-07-20T21:47:39.740Z,15.75
2018-07-20T21:50:10.568Z,14.75
2018-07-20T21:52:41.476Z,13.75
2018-07-20T21:55:12.836Z,14.25
2018-07-20T21:57:44.875Z,13.25
2018-07-20T22:00:23.253Z,14.00
2018-07-20T22:02:53.604Z,15.75
2018-07-20T22:05:36.507Z,12.75
2018-07-20T22:08:08.291Z,14.25
2018-07-20T22:10:43.985Z,14.25
2018-07-20T22:13:16.177Z,14.75
2018-07-20T22:15:52.553Z,14.25
2018-07-20T22:18:26.556Z,15.75
2018-07-20T22:20:59.887Z,14.50
2018-07-20T22:23:36.462Z,13.75
2018-07-20T22:26:09.746Z,13.50
2018-07-20T22:28:53.853Z,14.75
2018-07-20T22:31:28.562Z,12.75
2018-07-20T22:34:04.017Z,12.50
2018-07-20T22:36:35.174Z,15.25
2018-07-20T22:39:11.718Z,16.25
2018-07-20T22:41:42.330Z,14.50
2018-07-20T22:44:17.470Z,14.25
2018-07-20T22:46:49.580Z,15.00
2018-07-20T22:49:21.373Z,14.00
2018-07-20T22:51:55.647Z,13.00
2018-07-20T22:54:26.161Z,14.00
2018-07-20T22:57:00.571Z,14.50
2018-07-20T22:59:31.464Z,15.75
2018-07-20T23:02:06.085Z,15.75
2018-07-20T23:04:38.423Z,16.50
2018-07-20T23:07:12.754Z,17.00
2018-07-20T23:09:50.257Z,18.00
2018-07-20T23:12:24.841Z,15.25
2018-07-20T23:14:58.365Z,16.50
2018-07-20T23:17:47.505Z,15.75
2018-07-20T23:20:26.507Z,15.25
2018-07-20T23:22:58.931Z,16.25
2018-07-20T23:25:30.534Z,17.75
2018-07-20T23:28:02.935Z,16.50
2018-07-20T23:30:43.052Z,15.00
2018-07-20T23:33:14.583Z,17.25
2018-07-20T23:35:45.025Z,17.50
2018-07-20T23:38:17.387Z,17.75
2018-07-20T23:40:48.719Z,16.75
2018-07-20T23:43:20.147Z,13.75
2018-07-20T23:45:55.401Z,14.75
2018-07-20T23:48:31.272Z,15.25
2018-07-20T23:51:08.997Z,16.25
2018-07-20T23:53:41.603Z,18.50
2018-07-20T23:56:12.611Z,17.50
2018-07-20T23:58:45.027Z,16.50
